createdAt,value
2022-10-11T00:01:46.152Z,9.70
2022-10-11T00:04:13.960Z,9.61
2022-10-11T00:06:43.399Z,9.59
2022-10-11T00:09:12.471Z,9.58
2022-10-11T00:11:41.580Z,9.49
2022-10-11T00:14:09.566Z,9.43
2022-10-11T00:16:38.654Z,9.39
2022-10-11T00:19:06.398Z,9.33
2022-10-11T00:21:34.120Z,9.29
2022-10-11T00:24:01.992Z,9.25
2022-10-11T00:26:29.970Z,9.23
2022-10-11T00:28:59.317Z,9.21
2022-10-11T00:31:28.388Z,9.12
2022-10-11T00:33:58.602Z,9.15
2022-10-11T00:36:26.652Z,9.12
2022-10-11T00:38:54.445Z,9.09
2022-10-11T00:41:22.903Z,9.07
2022-10-11T00:44:14.410Z,9.04
2022-10-11T00:46:45.517Z,8.93
2022-10-11T00:49:19.027Z,8.90
2022-10-11T00:51:54.365Z,8.82
2022-10-11T00:54:25.279Z,8.78
2022-10-11T00:56:57.395Z,8.81
2022-10-11T00:59:30.519Z,8.79
2022-10-11T01:01:58.607Z,8.71
2022-10-11T01:04:26.322Z,8.65
2022-10-11T01:06:55.600Z,8.57
2022-10-11T01:09:23.545Z,8.59
2022-10-11T01:11:54.709Z,8.59
2022-10-11T01:14:54.845Z,8.60
2022-10-11T01:17:34.579Z,8.56
2022-10-11T01:20:39.048Z,8.54
2022-10-11T01:23:57.516Z,8.44
2022-10-11T01:27:02.517Z,8.40
2022-10-11T01:29:42.659Z,8.36
2022-10-11T01:32:16.887Z,8.30
2022-10-11T01:34:52.639Z,8.25
2022-10-11T01:37:25.270Z,8.21
2022-10-11T01:39:59.965Z,8.18
2022-10-11T01:42:29.769Z,8.07
2022-10-11T01:44:59.645Z,7.99
2022-10-11T01:47:28.753Z,7.97
2022-10-11T01:49:57.899Z,7.94
2022-10-11T01:52:27.877Z,7.93
2022-10-11T01:55:12.844Z,7.90
2022-10-11T01:58:07.252Z,7.85
2022-10-11T02:00:44.270Z,7.79
2022-10-11T02:03:25.872Z,7.69
2022-10-11T02:05:58.462Z,7.65
2022-10-11T02:08:34.461Z,7.68
2022-10-11T02:11:08.118Z,7.63
2022-10-11T02:13:41.223Z,7.64
2022-10-11T02:16:19.811Z,7.61
2022-10-11T02:18:53.925Z,7.59
2022-10-11T02:21:23.934Z,7.59
2022-10-11T02:23:55.178Z,7.55
2022-10-11T02:26:26.064Z,7.48
2022-10-11T02:28:58.355Z,7.48
2022-10-11T02:31:27.141Z,7.47
2022-10-11T02:34:02.714Z,7.44
2022-10-11T02:36:41.641Z,7.38
2022-10-11T02:39:17.232Z,7.30
2022-10-11T02:41:47.112Z,7.25
2022-10-11T02:44:20.886Z,7.23
2022-10-11T02:46:50.828Z,7.15
2022-10-11T02:49:21.086Z,7.16
2022-10-11T02:51:49.206Z,7.17
2022-10-11T02:54:16.932Z,7.12
2022-10-11T02:56:44.617Z,7.01
2022-10-11T02:59:12.561Z,6.89
2022-10-11T03:01:40.369Z,6.87
2022-10-11T03:04:08.144Z,6.90
2022-10-11T03:06:37.291Z,6.96
2022-10-11T03:09:05.054Z,6.89
2022-10-11T03:11:32.792Z,6.88
2022-10-11T03:14:00.542Z,6.96
2022-10-11T03:16:28.207Z,7.01
2022-10-11T03:18:56.229Z,6.99
2022-10-11T03:21:25.466Z,6.98
2022-10-11T03:23:54.573Z,6.98
2022-10-11T03:26:22.305Z,6.95
2022-10-11T03:28:50.275Z,6.95
2022-10-11T03:31:18.542Z,6.94
2022-10-11T03:33:46.370Z,6.95
2022-10-11T03:36:14.278Z,6.89
2022-10-11T03:38:42.247Z,6.85
2022-10-11T03:41:11.331Z,6.80
2022-10-11T03:43:39.028Z,6.77
2022-10-11T03:46:07.602Z,6.75
2022-10-11T03:48:35.886Z,6.66
2022-10-11T03:51:03.591Z,6.65
2022-10-11T03:53:31.341Z,6.60
2022-10-11T03:55:59.131Z,6.63
2022-10-11T03:58:28.242Z,6.66
2022-10-11T04:00:55.929Z,6.65
2022-10-11T04:03:23.759Z,6.64
2022-10-11T04:05:51.469Z,6.65
2022-10-11T04:08:19.532Z,6.66
2022-10-11T04:10:48.961Z,6.67
2022-10-11T04:13:17.080Z,6.67
2022-10-11T04:15:46.357Z,6.73
2022-10-11T04:18:14.107Z,6.71
2022-10-11T04:20:42.695Z,6.67
2022-10-11T04:23:10.396Z,6.62
2022-10-11T04:25:39.423Z,6.69
2022-10-11T04:28:07.984Z,6.75
2022-10-11T04:30:35.861Z,6.80
2022-10-11T04:33:05.156Z,6.82
2022-10-11T04:35:32.898Z,6.86
2022-10-11T04:38:00.613Z,6.89
2022-10-11T04:40:28.412Z,6.90
2022-10-11T04:42:56.103Z,6.93
2022-10-11T04:45:23.899Z,6.91
2022-10-11T04:47:51.585Z,6.93
2022-10-11T04:50:20.772Z,6.97
2022-10-11T04:52:48.592Z,6.99
2022-10-11T04:55:16.489Z,7.03
2022-10-11T04:57:44.227Z,7.02
2022-10-11T05:00:13.434Z,7.04
2022-10-11T05:02:41.193Z,7.07
2022-10-11T05:05:09.947Z,7.13
2022-10-11T05:07:39.021Z,7.14
2022-10-11T05:10:08.463Z,7.05
2022-10-11T05:12:36.219Z,7.08
2022-10-11T05:15:04.126Z,7.16
2022-10-11T05:17:32.158Z,7.12
2022-10-11T05:20:00.059Z,7.16
2022-10-11T05:22:27.765Z,7.16
2022-10-11T05:24:56.841Z,7.20
2022-10-11T05:27:24.625Z,7.28
2022-10-11T05:29:52.312Z,7.27
2022-10-11T05:32:20.022Z,7.33
2022-10-11T05:34:47.799Z,7.30
2022-10-11T05:37:15.474Z,7.37
2022-10-11T05:39:43.237Z,7.42
2022-10-11T05:42:12.238Z,7.48
2022-10-11T05:44:40.013Z,7.56
2022-10-11T05:47:07.669Z,7.60
2022-10-11T05:49:35.351Z,7.63
2022-10-11T05:52:03.025Z,7.62
2022-10-11T05:54:32.270Z,7.60
2022-10-11T05:57:00.025Z,7.65
2022-10-11T05:59:29.034Z,7.65
2022-10-11T06:01:56.700Z,7.70
2022-10-11T06:04:24.371Z,7.68
2022-10-11T06:06:52.004Z,7.71
2022-10-11T06:09:19.754Z,7.66
2022-10-11T06:11:47.737Z,7.71
2022-10-11T06:14:15.513Z,7.74
2022-10-11T06:16:44.989Z,7.76
2022-10-11T06:19:12.729Z,7.77
2022-10-11T06:21:40.427Z,7.76
2022-10-11T06:24:09.285Z,7.82
2022-10-11T06:26:37.150Z,7.94
2022-10-11T06:29:05.539Z,8.02
2022-10-11T06:31:33.746Z,8.07
2022-10-11T06:34:02.921Z,8.13
2022-10-11T06:36:30.924Z,8.06
2022-10-11T06:39:00.893Z,8.10
2022-10-11T06:41:30.375Z,8.13
2022-10-11T06:43:58.222Z,8.13
2022-10-11T06:46:28.846Z,8.22
2022-10-11T06:48:57.295Z,8.25
2022-10-11T06:51:28.538Z,8.29
2022-10-11T06:53:58.562Z,8.40
2022-10-11T06:56:27.192Z,8.44
2022-10-11T06:58:55.525Z,8.47
2022-10-11T07:01:24.532Z,8.54
2022-10-11T07:03:53.644Z,8.61
2022-10-11T07:06:23.288Z,8.66
2022-10-11T07:08:53.041Z,8.68
2022-10-11T07:11:22.951Z,8.67
2022-10-11T07:13:51.948Z,8.71
2022-10-11T07:16:20.646Z,8.74
2022-10-11T07:18:49.467Z,8.85
2022-10-11T07:21:17.544Z,8.91
2022-10-11T07:23:45.489Z,8.96
2022-10-11T07:26:14.693Z,9.03
2022-10-11T07:28:42.895Z,9.12
2022-10-11T07:31:13.288Z,9.19
2022-10-11T07:33:41.127Z,9.21
2022-10-11T07:36:09.774Z,9.23
2022-10-11T07:38:40.991Z,9.18
2022-10-11T07:41:09.598Z,9.45
2022-10-11T07:43:39.183Z,9.33
2022-10-11T07:46:08.115Z,9.47
2022-10-11T07:48:37.417Z,9.62
2022-10-11T07:51:06.625Z,9.63
2022-10-11T07:53:39.717Z,9.60
2022-10-11T07:56:08.769Z,9.73
2022-10-11T07:58:38.500Z,9.74
2022-10-11T08:01:07.131Z,9.82
2022-10-11T08:03:34.912Z,9.93
2022-10-11T08:06:03.917Z,9.91
2022-10-11T08:08:32.276Z,10.01
2022-10-11T08:11:00.686Z,10.11
2022-10-11T08:13:28.623Z,10.35
2022-10-11T08:15:57.931Z,10.43
2022-10-11T08:18:25.953Z,10.52
2022-10-11T08:20:54.038Z,10.67
2022-10-11T08:23:21.808Z,10.79
2022-10-11T08:25:49.723Z,11.13
2022-10-11T08:28:18.003Z,11.25
2022-10-11T08:30:50.515Z,11.92
2022-10-11T08:33:20.913Z,12.64
2022-10-11T08:35:49.152Z,12.47
2022-10-11T08:38:17.942Z,12.17
2022-10-11T08:40:50.527Z,12.05
2022-10-11T08:43:33.163Z,11.96
2022-10-11T08:46:03.676Z,11.95
2022-10-11T08:48:37.596Z,11.59
2022-10-11T08:51:15.007Z,11.52
2022-10-11T08:53:50.276Z,11.45
2022-10-11T08:56:18.707Z,11.20
2022-10-11T08:58:51.606Z,11.16
2022-10-11T09:01:22.938Z,11.33
2022-10-11T09:03:53.177Z,11.37
2022-10-11T09:06:37.604Z,11.36
2022-10-11T09:09:22.877Z,11.03
2022-10-11T09:12:03.755Z,11.02
2022-10-11T09:15:06.711Z,10.93
2022-10-11T09:17:56.538Z,11.08
2022-10-11T09:20:53.021Z,10.88
2022-10-11T09:23:39.270Z,11.03
2022-10-11T09:26:13.881Z,11.37
2022-10-11T09:28:58.680Z,11.23
2022-10-11T09:31:29.273Z,11.20
2022-10-11T09:33:59.963Z,10.94
2022-10-11T09:36:37.112Z,10.78
2022-10-11T09:39:14.691Z,11.29
2022-10-11T09:41:48.956Z,11.24
2022-10-11T09:44:23.536Z,11.33
2022-10-11T09:46:53.742Z,11.35
2022-10-11T09:49:25.132Z,11.44
2022-10-11T09:51:57.372Z,11.22
2022-10-11T09:54:39.105Z,11.38
2022-10-11T09:57:07.181Z,11.10
2022-10-11T09:59:35.974Z,11.11
2022-10-11T10:02:18.836Z,11.44
2022-10-11T10:04:58.432Z,12.07
2022-10-11T10:07:28.458Z,11.82
2022-10-11T10:09:56.342Z,11.56
2022-10-11T10:12:28.175Z,11.40
2022-10-11T10:15:02.556Z,12.11
2022-10-11T10:17:30.472Z,12.42
2022-10-11T10:20:00.385Z,12.36
2022-10-11T10:22:33.273Z,12.78
2022-10-11T10:25:07.140Z,13.65
2022-10-11T10:27:35.302Z,14.61
2022-10-11T10:30:15.872Z,15.20
2022-10-11T10:32:50.827Z,14.62
2022-10-11T10:35:29.536Z,15.21
2022-10-11T10:38:08.216Z,15.53
2022-10-11T10:40:42.627Z,16.02
2022-10-11T10:43:18.776Z,16.35
2022-10-11T10:46:18.380Z,16.34
2022-10-11T10:51:50.593Z,16.90
2022-10-11T10:54:30.762Z,16.61
2022-10-11T10:57:03.267Z,16.01
2022-10-11T10:59:47.811Z,16.22
2022-10-11T11:02:39.828Z,16.88
2022-10-11T11:05:18.705Z,17.60
2022-10-11T11:07:51.046Z,16.61
2022-10-11T11:10:23.908Z,17.10
2022-10-11T11:12:58.296Z,17.08
2022-10-11T11:15:36.968Z,16.79
2022-10-11T11:18:20.185Z,16.79
2022-10-11T11:21:01.516Z,17.57
2022-10-11T11:23:38.341Z,17.65
2022-10-11T11:26:17.754Z,16.23
2022-10-11T11:28:57.276Z,16.17
2022-10-11T11:31:44.112Z,17.27
2022-10-11T11:34:20.538Z,18.06
2022-10-11T11:36:52.928Z,17.50
2022-10-11T11:39:24.228Z,17.80
2022-10-11T11:41:57.556Z,16.99
2022-10-11T11:44:31.066Z,16.54
2022-10-11T11:47:04.209Z,17.64
2022-10-11T11:49:36.132Z,18.80
2022-10-11T11:52:05.503Z,18.79
2022-10-11T11:54:43.363Z,19.47
2022-10-11T11:57:24.686Z,19.52
2022-10-11T11:59:58.144Z,20.16
2022-10-11T12:02:40.066Z,19.18
2022-10-11T12:05:09.413Z,18.94
2022-10-11T12:07:53.884Z,19.85
2022-10-11T12:10:32.319Z,19.67
2022-10-11T12:13:22.934Z,19.38
2022-10-11T12:16:10.303Z,19.64
2022-10-11T12:18:51.053Z,19.27
2022-10-11T12:21:23.259Z,19.37
2022-10-11T12:23:52.363Z,19.25
2022-10-11T12:26:36.677Z,19.37
2022-10-11T12:29:55.564Z,18.26
2022-10-11T12:32:53.327Z,18.01
2022-10-11T12:35:42.399Z,17.99
2022-10-11T12:38:20.301Z,17.80
2022-10-11T12:40:49.671Z,18.65
2022-10-11T12:43:59.758Z,18.83
2022-10-11T12:46:58.892Z,17.62
2022-10-11T12:49:44.781Z,17.28
2022-10-11T12:52:29.798Z,17.28
2022-10-11T12:55:30.516Z,16.66
2022-10-11T12:58:26.850Z,17.98
2022-10-11T13:01:16.611Z,18.52
2022-10-11T13:03:47.645Z,18.57
2022-10-11T13:06:19.366Z,17.97
2022-10-11T13:08:53.292Z,18.50
2022-10-11T13:11:23.687Z,17.59
2022-10-11T13:13:55.181Z,17.63
2022-10-11T13:16:26.469Z,18.38
2022-10-11T13:18:57.472Z,18.55
2022-10-11T13:21:31.071Z,18.23
2022-10-11T13:24:01.399Z,18.05
2022-10-11T13:26:31.588Z,18.09
2022-10-11T13:29:01.177Z,18.09
2022-10-11T13:31:29.131Z,17.99
2022-10-11T13:33:59.077Z,17.20
2022-10-11T13:36:28.491Z,17.68
2022-10-11T13:38:58.672Z,16.82
2022-10-11T13:41:28.121Z,17.53
2022-10-11T13:43:58.054Z,17.54
2022-10-11T13:46:27.569Z,17.81
2022-10-11T13:49:02.489Z,17.85
2022-10-11T13:51:36.732Z,18.15
2022-10-11T13:54:08.466Z,17.83
2022-10-11T13:56:45.105Z,17.78
2022-10-11T13:59:18.245Z,16.93
2022-10-11T14:01:46.742Z,16.99
2022-10-11T14:04:17.371Z,17.33
2022-10-11T14:06:49.028Z,17.55
2022-10-11T14:09:21.464Z,17.87
2022-10-11T14:11:50.162Z,17.65
2022-10-11T14:14:43.660Z,16.60
2022-10-11T14:17:17.124Z,16.87
2022-10-11T14:19:45.993Z,17.19
2022-10-11T14:22:17.225Z,16.95
2022-10-11T14:24:48.021Z,17.29
2022-10-11T14:27:19.598Z,17.24
2022-10-11T14:30:00.543Z,16.87
2022-10-11T14:32:36.294Z,16.83
2022-10-11T14:35:05.204Z,17.09
2022-10-11T14:37:34.310Z,16.96
2022-10-11T14:40:02.042Z,16.88
2022-10-11T14:42:29.857Z,16.49
2022-10-11T14:44:57.552Z,16.59
2022-10-11T14:47:25.268Z,16.68
2022-10-11T14:49:52.979Z,16.69
2022-10-11T14:52:20.697Z,16.50
2022-10-11T14:54:49.787Z,16.51
2022-10-11T14:57:17.533Z,16.42
2022-10-11T14:59:45.318Z,16.55
2022-10-11T15:02:13.167Z,16.40
2022-10-11T15:04:40.827Z,16.33
2022-10-11T15:07:08.758Z,16.41
2022-10-11T15:09:36.475Z,16.59
2022-10-11T15:12:06.152Z,16.24
2022-10-11T15:14:33.869Z,15.83
2022-10-11T15:17:01.545Z,16.20
2022-10-11T15:19:29.273Z,16.13
2022-10-11T15:21:56.979Z,15.87
2022-10-11T15:24:24.799Z,15.89
2022-10-11T15:26:52.487Z,15.81
2022-10-11T15:29:24.026Z,15.56
2022-10-11T15:31:51.960Z,15.49
2022-10-11T15:34:19.636Z,15.32
2022-10-11T15:36:47.708Z,15.18
2022-10-11T15:39:25.382Z,15.06
2022-10-11T15:41:53.264Z,15.07
2022-10-11T15:44:22.445Z,15.01
2022-10-11T15:46:50.190Z,15.21
2022-10-11T15:49:19.165Z,15.27
2022-10-11T15:51:47.350Z,14.97
2022-10-11T15:54:15.096Z,15.06
2022-10-11T15:56:43.140Z,15.05
2022-10-11T15:59:11.571Z,15.03
2022-10-11T16:01:40.810Z,15.00
2022-10-11T16:04:08.602Z,14.90
2022-10-11T16:06:36.307Z,14.96
2022-10-11T16:09:04.238Z,15.01
2022-10-11T16:11:32.110Z,14.96
2022-10-11T16:13:59.854Z,14.87
2022-10-11T16:16:27.520Z,14.90
2022-10-11T16:18:56.583Z,14.93
2022-10-11T16:21:24.653Z,14.86
2022-10-11T16:23:52.357Z,14.78
2022-10-11T16:26:20.188Z,14.64
2022-10-11T16:28:48.464Z,14.57
2022-10-11T16:31:20.694Z,14.39
2022-10-11T16:33:48.728Z,14.39
2022-10-11T16:36:39.932Z,14.29
2022-10-11T16:39:10.311Z,14.22
2022-10-11T16:41:38.833Z,14.09
2022-10-11T16:44:07.141Z,14.05
2022-10-11T16:46:35.438Z,14.00
2022-10-11T16:49:03.576Z,13.94
2022-10-11T16:51:32.709Z,13.88
2022-10-11T16:54:00.652Z,13.84
2022-10-11T16:56:28.666Z,13.77
2022-10-11T16:58:56.419Z,13.63
2022-10-11T17:01:24.614Z,13.50
2022-10-11T17:03:52.652Z,13.31
2022-10-11T17:06:21.178Z,13.21
2022-10-11T17:08:50.349Z,13.17
2022-10-11T17:11:18.429Z,13.17
2022-10-11T17:13:47.143Z,13.10
2022-10-11T17:16:15.307Z,13.00
2022-10-11T17:18:43.453Z,12.87
2022-10-11T17:21:13.992Z,12.85
2022-10-11T17:23:42.377Z,12.73
2022-10-11T17:26:16.447Z,12.72
2022-10-11T17:28:44.923Z,12.68
2022-10-11T17:31:13.212Z,12.63
2022-10-11T17:33:40.996Z,12.55
2022-10-11T17:36:23.851Z,12.49
2022-10-11T17:38:53.261Z,12.38
2022-10-11T17:41:22.315Z,12.28
2022-10-11T17:43:50.196Z,12.20
2022-10-11T17:46:19.358Z,12.10
2022-10-11T17:48:47.224Z,11.97
2022-10-11T17:51:16.858Z,11.87
2022-10-11T17:53:45.189Z,11.74
2022-10-11T17:56:14.967Z,11.65
2022-10-11T17:58:45.138Z,11.54
2022-10-11T18:01:15.334Z,11.54
2022-10-11T18:03:44.418Z,11.47
2022-10-11T18:06:14.207Z,11.47
2022-10-11T18:08:43.283Z,11.44
2022-10-11T18:11:13.639Z,11.23
2022-10-11T18:13:45.804Z,11.14
2022-10-11T18:16:16.097Z,11.18
2022-10-11T18:18:44.692Z,11.10
2022-10-11T18:21:13.124Z,11.19
2022-10-11T18:23:41.631Z,11.56
2022-10-11T18:26:11.400Z,11.92
2022-10-11T18:28:40.481Z,11.94
2022-10-11T18:31:13.382Z,12.06
2022-10-11T18:33:45.798Z,12.22
2022-10-11T18:36:16.240Z,12.25
2022-10-11T18:38:46.651Z,12.16
2022-10-11T18:41:16.759Z,11.97
2022-10-11T18:43:48.941Z,11.79
2022-10-11T18:46:16.797Z,11.67
2022-10-11T18:48:48.481Z,11.41
2022-10-11T18:51:19.285Z,11.27
2022-10-11T18:53:47.867Z,11.20
2022-10-11T18:56:17.698Z,11.07
2022-10-11T18:58:45.696Z,10.92
2022-10-11T19:01:16.957Z,10.81
2022-10-11T19:03:48.132Z,10.74
2022-10-11T19:06:18.501Z,10.68
2022-10-11T19:08:47.089Z,10.63
2022-10-11T19:11:16.862Z,10.51
2022-10-11T19:13:45.158Z,10.44
2022-10-11T19:16:15.233Z,10.39
2022-10-11T19:18:44.436Z,10.31
2022-10-11T19:21:14.497Z,10.29
2022-10-11T19:23:44.317Z,10.25
2022-10-11T19:26:15.534Z,10.20
2022-10-11T19:28:43.935Z,10.18
2022-10-11T19:31:17.010Z,10.10
2022-10-11T19:33:49.700Z,10.01
2022-10-11T19:36:20.223Z,9.84
2022-10-11T19:38:50.906Z,9.79
2022-10-11T19:41:20.710Z,9.71
2022-10-11T19:43:48.540Z,9.69
2022-10-11T19:46:37.893Z,9.53
2022-10-11T19:49:07.538Z,9.44
2022-10-11T19:51:38.094Z,9.42
2022-10-11T19:54:07.923Z,9.39
2022-10-11T19:56:36.665Z,9.37
2022-10-11T19:59:06.501Z,9.33
2022-10-11T20:01:35.490Z,9.29
2022-10-11T20:04:05.954Z,9.18
2022-10-11T20:06:38.701Z,9.08
2022-10-11T20:11:54.908Z,8.92
2022-10-11T20:14:24.130Z,8.89
2022-10-11T20:16:52.478Z,8.88
2022-10-11T20:19:24.869Z,8.82
2022-10-11T20:21:56.347Z,8.78
2022-10-11T20:24:24.361Z,8.83
2022-10-11T20:26:52.365Z,8.87
2022-10-11T20:29:20.409Z,8.85
2022-10-11T20:31:48.097Z,8.81
2022-10-11T20:34:15.928Z,8.69
2022-10-11T20:36:48.251Z,8.58
2022-10-11T20:39:18.562Z,8.51
2022-10-11T20:41:46.568Z,8.48
2022-10-11T20:44:16.040Z,8.51
2022-10-11T20:46:43.774Z,8.47
2022-10-11T20:49:13.567Z,8.41
2022-10-11T20:51:42.839Z,8.25
2022-10-11T20:54:11.274Z,8.20
2022-10-11T20:56:41.457Z,8.23
2022-10-11T20:59:09.985Z,8.25
2022-10-11T21:01:39.676Z,8.27
2022-10-11T21:04:18.589Z,8.16
2022-10-11T21:06:48.621Z,7.96
2022-10-11T21:09:17.402Z,7.95
2022-10-11T21:11:47.156Z,7.88
2022-10-11T21:14:15.125Z,7.88
2022-10-11T21:16:43.033Z,7.80
2022-10-11T21:19:15.065Z,7.84
2022-10-11T21:21:43.521Z,7.86
2022-10-11T21:24:11.473Z,7.85
2022-10-11T21:26:39.232Z,7.85
2022-10-11T21:29:08.547Z,7.77
2022-10-11T21:31:36.554Z,7.74
2022-10-11T21:34:05.086Z,7.82
2022-10-11T21:36:32.850Z,7.84
2022-10-11T21:39:00.905Z,7.80
2022-10-11T21:41:30.313Z,7.79
2022-10-11T21:43:58.605Z,7.80
2022-10-11T21:47:01.114Z,7.67
2022-10-11T21:49:19.057Z,7.57
2022-10-11T21:51:47.211Z,7.50
2022-10-11T21:54:15.139Z,7.36
2022-10-11T21:56:43.062Z,7.32
2022-10-11T21:59:12.397Z,7.31
2022-10-11T22:01:42.957Z,7.29
2022-10-11T22:04:11.980Z,7.30
2022-10-11T22:06:40.727Z,7.21
2022-10-11T22:09:09.463Z,7.15
2022-10-11T22:11:37.359Z,7.14
2022-10-11T22:14:05.519Z,7.10
2022-10-11T22:16:34.547Z,7.02
2022-10-11T22:19:04.074Z,7.09
2022-10-11T22:21:31.736Z,6.96
2022-10-11T22:23:59.574Z,6.92
2022-10-11T22:26:30.504Z,6.95
2022-10-11T22:28:58.664Z,6.93
2022-10-11T22:31:26.426Z,6.88
2022-10-11T22:33:55.635Z,6.77
2022-10-11T22:36:25.115Z,6.79
2022-10-11T22:38:53.542Z,6.70
2022-10-11T22:41:21.574Z,6.77
2022-10-11T22:43:49.273Z,6.72
2022-10-11T22:46:17.128Z,6.72
2022-10-11T22:48:45.048Z,6.75
2022-10-11T22:51:13.533Z,6.69
2022-10-11T22:53:42.624Z,6.67
2022-10-11T22:56:11.125Z,6.68
2022-10-11T22:58:38.829Z,6.71
2022-10-11T23:01:10.213Z,6.77
2022-10-11T23:03:38.479Z,6.75
2022-10-11T23:06:06.827Z,6.76
2022-10-11T23:08:34.517Z,6.67
2022-10-11T23:11:08.087Z,6.59
2022-10-11T23:13:36.129Z,6.67
2022-10-11T23:16:07.118Z,6.68
2022-10-11T23:18:35.221Z,6.69
2022-10-11T23:21:03.489Z,6.56
2022-10-11T23:23:31.319Z,6.52
2022-10-11T23:26:03.231Z,6.46
2022-10-11T23:28:32.418Z,6.42
2022-10-11T23:31:00.290Z,6.46
2022-10-11T23:33:29.342Z,6.49
2022-10-11T23:35:57.402Z,6.36
2022-10-11T23:38:25.210Z,6.32
2022-10-11T23:40:52.951Z,6.31
2022-10-11T23:43:20.850Z,6.32
2022-10-11T23:45:50.258Z,6.23
2022-10-11T23:48:18.009Z,6.12
2022-10-11T23:50:46.805Z,6.11
2022-10-11T23:53:14.561Z,6.16
2022-10-11T23:55:43.642Z,6.03
2022-10-11T23:58:11.411Z,6.04
